sensor_id;sensor_type;location;lat;lon;timestamp;P1;durP1;ratioP1;P2;durP2;ratioP2
5813;SDS011;2933;52.302;8.134;2023-04-24T00:03:58;0.63;;;0.63;;
5813;SDS011;2933;52.302;8.134;2023-04-24T00:09:01;0.70;;;0.70;;
5813;SDS011;2933;52.302;8.134;2023-04-24T00:14:03;0.73;;;0.73;;
5813;SDS011;2933;52.302;8.134;2023-04-24T00:19:05;0.90;;;0.80;;
5813;SDS011;2933;52.302;8.134;2023-04-24T00:24:08;0.97;;;0.90;;
5813;SDS011;2933;52.302;8.134;2023-04-24T00:29:10;1.53;;;1.43;;
5813;SDS011;2933;52.302;8.134;2023-04-24T00:34:11;1.47;;;1.37;;
5813;SDS011;2933;52.302;8.134;2023-04-24T00:39:14;1.40;;;1.40;;
5813;SDS011;2933;52.302;8.134;2023-04-24T00:44:16;1.40;;;1.30;;
5813;SDS011;2933;52.302;8.134;2023-04-24T00:49:18;1.40;;;1.17;;
5813;SDS011;2933;52.302;8.134;2023-04-24T00:54:21;1.77;;;1.00;;
5813;SDS011;2933;52.302;8.134;2023-04-24T00:59:22;2.10;;;0.93;;
5813;SDS011;2933;52.302;8.134;2023-04-24T01:04:24;1.30;;;1.20;;
5813;SDS011;2933;52.302;8.134;2023-04-24T01:09:28;1.73;;;1.10;;
5813;SDS011;2933;52.302;8.134;2023-04-24T01:14:30;1.03;;;1.03;;
5813;SDS011;2933;52.302;8.134;2023-04-24T01:19:32;1.00;;;1.00;;
5813;SDS011;2933;52.302;8.134;2023-04-24T01:24:35;0.97;;;0.97;;
5813;SDS011;2933;52.302;8.134;2023-04-24T01:29:36;1.00;;;1.00;;
5813;SDS011;2933;52.302;8.134;2023-04-24T01:34:38;1.10;;;1.10;;
5813;SDS011;2933;52.302;8.134;2023-04-24T01:39:42;1.20;;;1.20;;
5813;SDS011;2933;52.302;8.134;2023-04-24T01:44:44;0.93;;;0.93;;
5813;SDS011;2933;52.302;8.134;2023-04-24T01:49:46;0.90;;;0.90;;
5813;SDS011;2933;52.302;8.134;2023-04-24T01:54:50;1.10;;;1.10;;
5813;SDS011;2933;52.302;8.134;2023-04-24T01:59:53;1.27;;;0.80;;
5813;SDS011;2933;52.302;8.134;2023-04-24T02:04:55;1.70;;;0.80;;
5813;SDS011;2933;52.302;8.134;2023-04-24T02:09:58;0.87;;;0.87;;
5813;SDS011;2933;52.302;8.134;2023-04-24T02:15:00;1.00;;;1.00;;
5813;SDS011;2933;52.302;8.134;2023-04-24T02:20:02;2.07;;;0.87;;
5813;SDS011;2933;52.302;8.134;2023-04-24T02:25:05;0.87;;;0.87;;
5813;SDS011;2933;52.302;8.134;2023-04-24T02:30:08;1.10;;;1.10;;
5813;SDS011;2933;52.302;8.134;2023-04-24T02:35:10;1.47;;;1.07;;
5813;SDS011;2933;52.302;8.134;2023-04-24T02:40:13;2.10;;;1.23;;
5813;SDS011;2933;52.302;8.134;2023-04-24T02:45:14;1.47;;;1.33;;
5813;SDS011;2933;52.302;8.134;2023-04-24T02:50:16;1.20;;;1.20;;
5813;SDS011;2933;52.302;8.134;2023-04-24T02:55:19;1.23;;;1.20;;
5813;SDS011;2933;52.302;8.134;2023-04-24T03:00:21;3.33;;;1.33;;
5813;SDS011;2933;52.302;8.134;2023-04-24T03:05:22;1.50;;;1.40;;
5813;SDS011;2933;52.302;8.134;2023-04-24T03:10:25;3.27;;;1.67;;
5813;SDS011;2933;52.302;8.134;2023-04-24T03:15:27;1.40;;;1.30;;
5813;SDS011;2933;52.302;8.134;2023-04-24T03:20:29;1.60;;;1.50;;
5813;SDS011;2933;52.302;8.134;2023-04-24T03:25:32;2.00;;;1.80;;
5813;SDS011;2933;52.302;8.134;2023-04-24T03:30:33;1.73;;;1.63;;
5813;SDS011;2933;52.302;8.134;2023-04-24T03:35:35;5.60;;;1.33;;
5813;SDS011;2933;52.302;8.134;2023-04-24T03:40:38;5.40;;;1.47;;
5813;SDS011;2933;52.302;8.134;2023-04-24T03:45:39;2.43;;;2.00;;
5813;SDS011;2933;52.302;8.134;2023-04-24T03:50:41;2.17;;;1.97;;
5813;SDS011;2933;52.302;8.134;2023-04-24T03:55:44;3.57;;;2.07;;
5813;SDS011;2933;52.302;8.134;2023-04-24T04:00:45;2.93;;;2.83;;
5813;SDS011;2933;52.302;8.134;2023-04-24T04:05:47;3.40;;;3.20;;
5813;SDS011;2933;52.302;8.134;2023-04-24T04:10:50;4.00;;;3.70;;
5813;SDS011;2933;52.302;8.134;2023-04-24T04:15:52;5.40;;;4.03;;
5813;SDS011;2933;52.302;8.134;2023-04-24T04:20:53;4.50;;;4.10;;
5813;SDS011;2933;52.302;8.134;2023-04-24T04:25:58;7.13;;;4.33;;
5813;SDS011;2933;52.302;8.134;2023-04-24T04:30:59;4.90;;;4.50;;
5813;SDS011;2933;52.302;8.134;2023-04-24T04:36:01;4.90;;;4.53;;
5813;SDS011;2933;52.302;8.134;2023-04-24T04:41:05;5.90;;;5.30;;
5813;SDS011;2933;52.302;8.134;2023-04-24T04:46:07;6.23;;;5.63;;
5813;SDS011;2933;52.302;8.134;2023-04-24T04:51:11;6.20;;;5.60;;
5813;SDS011;2933;52.302;8.134;2023-04-24T04:56:14;6.70;;;5.57;;
5813;SDS011;2933;52.302;8.134;2023-04-24T05:01:15;8.60;;;6.50;;
5813;SDS011;2933;52.302;8.134;2023-04-24T05:06:17;11.83;;;7.43;;
5813;SDS011;2933;52.302;8.134;2023-04-24T05:11:20;10.57;;;7.53;;
5813;SDS011;2933;52.302;8.134;2023-04-24T05:16:21;10.30;;;7.30;;
5813;SDS011;2933;52.302;8.134;2023-04-24T05:21:23;11.20;;;7.73;;
5813;SDS011;2933;52.302;8.134;2023-04-24T05:26:26;22.80;;;8.80;;
5813;SDS011;2933;52.302;8.134;2023-04-24T05:31:28;12.20;;;8.27;;
5813;SDS011;2933;52.302;8.134;2023-04-24T05:36:29;11.10;;;8.40;;
5813;SDS011;2933;52.302;8.134;2023-04-24T05:41:33;16.80;;;9.63;;
5813;SDS011;2933;52.302;8.134;2023-04-24T05:46:35;15.70;;;9.53;;
5813;SDS011;2933;52.302;8.134;2023-04-24T05:51:36;19.63;;;10.20;;
5813;SDS011;2933;52.302;8.134;2023-04-24T05:56:40;15.20;;;9.80;;
5813;SDS011;2933;52.302;8.134;2023-04-24T06:01:42;15.07;;;9.50;;
5813;SDS011;2933;52.302;8.134;2023-04-24T06:06:44;16.20;;;9.57;;
5813;SDS011;2933;52.302;8.134;2023-04-24T06:11:47;18.43;;;10.87;;
5813;SDS011;2933;52.302;8.134;2023-04-24T06:16:49;17.67;;;10.00;;
5813;SDS011;2933;52.302;8.134;2023-04-24T06:21:50;15.27;;;10.13;;
5813;SDS011;2933;52.302;8.134;2023-04-24T06:26:53;17.23;;;10.17;;
5813;SDS011;2933;52.302;8.134;2023-04-24T06:31:56;26.57;;;11.83;;
5813;SDS011;2933;52.302;8.134;2023-04-24T06:36:58;17.70;;;10.40;;
5813;SDS011;2933;52.302;8.134;2023-04-24T06:42:01;19.93;;;11.37;;
5813;SDS011;2933;52.302;8.134;2023-04-24T06:47:02;21.87;;;10.80;;
5813;SDS011;2933;52.302;8.134;2023-04-24T06:52:04;26.60;;;11.00;;
5813;SDS011;2933;52.302;8.134;2023-04-24T06:57:07;14.00;;;10.07;;
5813;SDS011;2933;52.302;8.134;2023-04-24T07:02:10;17.50;;;11.20;;
5813;SDS011;2933;52.302;8.134;2023-04-24T07:07:12;18.30;;;10.73;;
5813;SDS011;2933;52.302;8.134;2023-04-24T07:12:15;17.47;;;11.30;;
5813;SDS011;2933;52.302;8.134;2023-04-24T07:17:17;14.60;;;9.00;;
5813;SDS011;2933;52.302;8.134;2023-04-24T07:22:18;20.70;;;10.27;;
5813;SDS011;2933;52.302;8.134;2023-04-24T07:27:21;22.47;;;10.10;;
5813;SDS011;2933;52.302;8.134;2023-04-24T07:32:23;11.53;;;8.80;;
5813;SDS011;2933;52.302;8.134;2023-04-24T07:37:24;20.03;;;9.23;;
5813;SDS011;2933;52.302;8.134;2023-04-24T07:42:27;16.33;;;9.47;;
5813;SDS011;2933;52.302;8.134;2023-04-24T07:47:30;14.47;;;9.07;;
5813;SDS011;2933;52.302;8.134;2023-04-24T07:57:35;12.17;;;8.20;;
5813;SDS011;2933;52.302;8.134;2023-04-24T08:02:37;21.00;;;8.90;;
5813;SDS011;2933;52.302;8.134;2023-04-24T08:07:38;12.10;;;7.40;;
5813;SDS011;2933;52.302;8.134;2023-04-24T08:12:43;13.90;;;8.03;;
5813;SDS011;2933;52.302;8.134;2023-04-24T08:17:45;11.83;;;7.73;;
5813;SDS011;2933;52.302;8.134;2023-04-24T08:22:46;12.47;;;7.77;;
5813;SDS011;2933;52.302;8.134;2023-04-24T08:27:50;13.13;;;8.60;;
5813;SDS011;2933;52.302;8.134;2023-04-24T08:32:51;8.90;;;7.80;;
5813;SDS011;2933;52.302;8.134;2023-04-24T08:37:53;9.93;;;7.57;;
5813;SDS011;2933;52.302;8.134;2023-04-24T08:42:56;8.13;;;5.93;;
5813;SDS011;2933;52.302;8.134;2023-04-24T08:47:58;8.53;;;6.93;;
5813;SDS011;2933;52.302;8.134;2023-04-24T08:53:01;8.83;;;6.30;;
5813;SDS011;2933;52.302;8.134;2023-04-24T08:58:04;8.40;;;5.97;;
5813;SDS011;2933;52.302;8.134;2023-04-24T09:03:06;10.07;;;6.03;;
5813;SDS011;2933;52.302;8.134;2023-04-24T09:08:07;5.97;;;5.37;;
5813;SDS011;2933;52.302;8.134;2023-04-24T09:13:12;5.73;;;4.83;;
5813;SDS011;2933;52.302;8.134;2023-04-24T09:18:14;5.57;;;5.07;;
5813;SDS011;2933;52.302;8.134;2023-04-24T09:23:17;5.30;;;4.90;;
5813;SDS011;2933;52.302;8.134;2023-04-24T09:28:22;9.10;;;5.00;;
5813;SDS011;2933;52.302;8.134;2023-04-24T09:33:27;5.57;;;4.63;;
5813;SDS011;2933;52.302;8.134;2023-04-24T09:38:32;6.90;;;4.70;;
5813;SDS011;2933;52.302;8.134;2023-04-24T09:43:36;8.40;;;4.60;;
5813;SDS011;2933;52.302;8.134;2023-04-24T09:48:38;8.57;;;6.00;;
5813;SDS011;2933;52.302;8.134;2023-04-24T09:53:39;5.37;;;4.87;;
5813;SDS011;2933;52.302;8.134;2023-04-24T09:58:42;5.03;;;4.53;;
5813;SDS011;2933;52.302;8.134;2023-04-24T10:03:44;5.40;;;5.00;;
5813;SDS011;2933;52.302;8.134;2023-04-24T10:08:47;5.20;;;4.90;;
5813;SDS011;2933;52.302;8.134;2023-04-24T10:13:52;5.30;;;4.90;;
5813;SDS011;2933;52.302;8.134;2023-04-24T10:18:55;5.47;;;5.00;;
5813;SDS011;2933;52.302;8.134;2023-04-24T10:24:00;5.30;;;4.90;;
5813;SDS011;2933;52.302;8.134;2023-04-24T10:29:05;5.53;;;5.03;;
5813;SDS011;2933;52.302;8.134;2023-04-24T10:34:09;3.77;;;3.43;;
5813;SDS011;2933;52.302;8.134;2023-04-24T10:39:12;3.80;;;3.50;;
5813;SDS011;2933;52.302;8.134;2023-04-24T10:44:17;3.10;;;2.90;;
5813;SDS011;2933;52.302;8.134;2023-04-24T10:49:19;2.33;;;2.23;;
5813;SDS011;2933;52.302;8.134;2023-04-24T10:54:33;1.60;;;1.50;;
5813;SDS011;2933;52.302;8.134;2023-04-24T10:59:40;1.27;;;1.27;;
5813;SDS011;2933;52.302;8.134;2023-04-24T11:04:41;1.57;;;1.47;;
5813;SDS011;2933;52.302;8.134;2023-04-24T11:09:43;1.20;;;1.10;;
5813;SDS011;2933;52.302;8.134;2023-04-24T11:15:01;1.00;;;1.00;;
5813;SDS011;2933;52.302;8.134;2023-04-24T11:20:03;0.73;;;0.73;;
5813;SDS011;2933;52.302;8.134;2023-04-24T11:25:08;0.83;;;0.83;;
5813;SDS011;2933;52.302;8.134;2023-04-24T11:30:16;1.00;;;0.90;;
5813;SDS011;2933;52.302;8.134;2023-04-24T11:35:19;2.47;;;0.70;;
5813;SDS011;2933;52.302;8.134;2023-04-24T11:40:24;1.37;;;1.20;;
5813;SDS011;2933;52.302;8.134;2023-04-24T11:45:28;2.23;;;2.13;;
5813;SDS011;2933;52.302;8.134;2023-04-24T11:50:30;6.13;;;4.20;;
5813;SDS011;2933;52.302;8.134;2023-04-24T11:55:32;7.53;;;4.20;;
5813;SDS011;2933;52.302;8.134;2023-04-24T12:00:35;7.07;;;4.40;;
5813;SDS011;2933;52.302;8.134;2023-04-24T12:05:38;10.83;;;5.50;;
5813;SDS011;2933;52.302;8.134;2023-04-24T12:10:40;8.13;;;5.27;;
5813;SDS011;2933;52.302;8.134;2023-04-24T12:15:43;17.07;;;5.80;;
5813;SDS011;2933;52.302;8.134;2023-04-24T12:20:44;8.60;;;5.00;;
5813;SDS011;2933;52.302;8.134;2023-04-24T12:25:46;6.37;;;5.37;;
5813;SDS011;2933;52.302;8.134;2023-04-24T12:30:49;8.23;;;5.57;;
5813;SDS011;2933;52.302;8.134;2023-04-24T12:35:51;7.40;;;4.33;;
5813;SDS011;2933;52.302;8.134;2023-04-24T12:41:01;6.83;;;4.37;;
5813;SDS011;2933;52.302;8.134;2023-04-24T12:46:05;4.00;;;2.87;;
5813;SDS011;2933;52.302;8.134;2023-04-24T12:51:07;6.40;;;3.60;;
5813;SDS011;2933;52.302;8.134;2023-04-24T12:56:08;9.17;;;3.30;;
5813;SDS011;2933;52.302;8.134;2023-04-24T13:01:11;5.23;;;3.43;;
5813;SDS011;2933;52.302;8.134;2023-04-24T13:06:13;6.57;;;3.30;;
5813;SDS011;2933;52.302;8.134;2023-04-24T13:11:15;3.37;;;3.07;;
5813;SDS011;2933;52.302;8.134;2023-04-24T13:16:21;2.80;;;2.60;;
5813;SDS011;2933;52.302;8.134;2023-04-24T13:21:23;3.70;;;2.73;;
5813;SDS011;2933;52.302;8.134;2023-04-24T13:26:26;4.30;;;2.67;;
5813;SDS011;2933;52.302;8.134;2023-04-24T13:31:29;7.20;;;3.40;;
5813;SDS011;2933;52.302;8.134;2023-04-24T13:36:30;5.93;;;3.73;;
5813;SDS011;2933;52.302;8.134;2023-04-24T13:41:32;4.73;;;3.03;;
5813;SDS011;2933;52.302;8.134;2023-04-24T13:46:35;13.30;;;3.60;;
5813;SDS011;2933;52.302;8.134;2023-04-24T13:51:37;4.60;;;3.27;;
5813;SDS011;2933;52.302;8.134;2023-04-24T13:56:38;9.07;;;3.33;;
5813;SDS011;2933;52.302;8.134;2023-04-24T14:01:42;6.07;;;3.07;;
5813;SDS011;2933;52.302;8.134;2023-04-24T14:06:44;6.80;;;2.87;;
5813;SDS011;2933;52.302;8.134;2023-04-24T14:11:46;2.87;;;2.67;;
5813;SDS011;2933;52.302;8.134;2023-04-24T14:16:49;4.43;;;2.40;;
5813;SDS011;2933;52.302;8.134;2023-04-24T14:21:51;2.70;;;2.50;;
5813;SDS011;2933;52.302;8.134;2023-04-24T14:26:52;6.30;;;1.90;;
5813;SDS011;2933;52.302;8.134;2023-04-24T14:31:55;3.50;;;2.23;;
5813;SDS011;2933;52.302;8.134;2023-04-24T14:36:57;3.33;;;2.50;;
5813;SDS011;2933;52.302;8.134;2023-04-24T14:41:59;5.00;;;2.30;;
5813;SDS011;2933;52.302;8.134;2023-04-24T14:47:02;5.03;;;2.07;;
5813;SDS011;2933;52.302;8.134;2023-04-24T14:52:04;3.67;;;2.47;;
5813;SDS011;2933;52.302;8.134;2023-04-24T14:57:05;9.20;;;2.40;;
5813;SDS011;2933;52.302;8.134;2023-04-24T15:02:08;5.80;;;2.10;;
5813;SDS011;2933;52.302;8.134;2023-04-24T15:07:10;2.60;;;2.40;;
5813;SDS011;2933;52.302;8.134;2023-04-24T15:12:11;5.77;;;2.30;;
5813;SDS011;2933;52.302;8.134;2023-04-24T15:17:14;1.77;;;1.67;;
5813;SDS011;2933;52.302;8.134;2023-04-24T15:22:15;6.30;;;2.70;;
5813;SDS011;2933;52.302;8.134;2023-04-24T15:27:17;3.27;;;1.90;;
5813;SDS011;2933;52.302;8.134;2023-04-24T15:32:20;7.10;;;2.07;;
5813;SDS011;2933;52.302;8.134;2023-04-24T15:37:22;2.13;;;2.03;;
5813;SDS011;2933;52.302;8.134;2023-04-24T15:42:23;5.70;;;2.40;;
5813;SDS011;2933;52.302;8.134;2023-04-24T15:47:26;7.77;;;2.60;;
5813;SDS011;2933;52.302;8.134;2023-04-24T15:52:28;3.37;;;2.20;;
5813;SDS011;2933;52.302;8.134;2023-04-24T15:57:30;2.30;;;1.87;;
5813;SDS011;2933;52.302;8.134;2023-04-24T16:02:33;2.83;;;1.50;;
5813;SDS011;2933;52.302;8.134;2023-04-24T16:07:34;2.37;;;1.90;;
5813;SDS011;2933;52.302;8.134;2023-04-24T16:12:37;1.87;;;1.20;;
5813;SDS011;2933;52.302;8.134;2023-04-24T16:17:41;4.83;;;1.60;;
5813;SDS011;2933;52.302;8.134;2023-04-24T16:22:42;2.43;;;1.50;;
5813;SDS011;2933;52.302;8.134;2023-04-24T16:27:44;5.80;;;1.50;;
5813;SDS011;2933;52.302;8.134;2023-04-24T16:32:49;3.20;;;1.50;;
5813;SDS011;2933;52.302;8.134;2023-04-24T16:37:50;3.90;;;1.20;;
5813;SDS011;2933;52.302;8.134;2023-04-24T16:42:52;4.87;;;1.13;;
5813;SDS011;2933;52.302;8.134;2023-04-24T16:47:55;1.40;;;1.30;;
5813;SDS011;2933;52.302;8.134;2023-04-24T16:52:56;4.10;;;1.40;;
5813;SDS011;2933;52.302;8.134;2023-04-24T16:57:58;5.13;;;1.80;;
5813;SDS011;2933;52.302;8.134;2023-04-24T17:03:01;8.13;;;1.83;;
5813;SDS011;2933;52.302;8.134;2023-04-24T17:08:02;4.13;;;1.70;;
5813;SDS011;2933;52.302;8.134;2023-04-24T17:13:04;6.63;;;2.03;;
5813;SDS011;2933;52.302;8.134;2023-04-24T17:18:07;4.07;;;2.00;;
5813;SDS011;2933;52.302;8.134;2023-04-24T17:23:08;3.53;;;2.27;;
5813;SDS011;2933;52.302;8.134;2023-04-24T17:28:13;2.97;;;2.10;;
5813;SDS011;2933;52.302;8.134;2023-04-24T17:33:22;6.47;;;1.90;;
5813;SDS011;2933;52.302;8.134;2023-04-24T17:38:24;5.87;;;1.93;;
5813;SDS011;2933;52.302;8.134;2023-04-24T17:43:26;5.77;;;2.13;;
5813;SDS011;2933;52.302;8.134;2023-04-24T17:48:29;10.00;;;2.43;;
5813;SDS011;2933;52.302;8.134;2023-04-24T17:53:31;3.40;;;2.33;;
5813;SDS011;2933;52.302;8.134;2023-04-24T17:58:32;3.67;;;2.33;;
5813;SDS011;2933;52.302;8.134;2023-04-24T18:03:35;3.10;;;2.10;;
5813;SDS011;2933;52.302;8.134;2023-04-24T18:08:38;8.60;;;2.53;;
5813;SDS011;2933;52.302;8.134;2023-04-24T18:13:39;9.50;;;2.80;;
5813;SDS011;2933;52.302;8.134;2023-04-24T18:18:42;8.83;;;2.43;;
5813;SDS011;2933;52.302;8.134;2023-04-24T18:23:44;4.60;;;3.00;;
5813;SDS011;2933;52.302;8.134;2023-04-24T18:28:46;13.87;;;2.93;;
5813;SDS011;2933;52.302;8.134;2023-04-24T18:33:49;3.03;;;1.93;;
5813;SDS011;2933;52.302;8.134;2023-04-24T18:38:52;3.80;;;1.87;;
5813;SDS011;2933;52.302;8.134;2023-04-24T18:43:54;4.50;;;2.53;;
5813;SDS011;2933;52.302;8.134;2023-04-24T18:48:58;2.20;;;1.67;;
5813;SDS011;2933;52.302;8.134;2023-04-24T18:54:00;5.70;;;2.10;;
5813;SDS011;2933;52.302;8.134;2023-04-24T18:59:01;4.80;;;2.20;;
5813;SDS011;2933;52.302;8.134;2023-04-24T19:04:04;9.30;;;2.47;;
5813;SDS011;2933;52.302;8.134;2023-04-24T19:09:06;4.00;;;2.07;;
5813;SDS011;2933;52.302;8.134;2023-04-24T19:14:08;8.57;;;2.47;;
5813;SDS011;2933;52.302;8.134;2023-04-24T19:19:11;10.10;;;2.50;;
5813;SDS011;2933;52.302;8.134;2023-04-24T19:24:13;6.20;;;2.17;;
5813;SDS011;2933;52.302;8.134;2023-04-24T19:29:15;4.57;;;2.03;;
5813;SDS011;2933;52.302;8.134;2023-04-24T19:34:18;5.10;;;3.10;;
5813;SDS011;2933;52.302;8.134;2023-04-24T19:39:20;6.30;;;2.33;;
5813;SDS011;2933;52.302;8.134;2023-04-24T19:44:21;4.73;;;1.80;;
5813;SDS011;2933;52.302;8.134;2023-04-24T19:49:25;11.70;;;2.97;;
5813;SDS011;2933;52.302;8.134;2023-04-24T19:54:27;8.50;;;1.90;;
5813;SDS011;2933;52.302;8.134;2023-04-24T19:59:28;3.80;;;2.70;;
5813;SDS011;2933;52.302;8.134;2023-04-24T20:09:34;9.90;;;2.97;;
5813;SDS011;2933;52.302;8.134;2023-04-24T20:14:45;5.93;;;2.80;;
5813;SDS011;2933;52.302;8.134;2023-04-24T20:19:48;6.43;;;2.90;;
5813;SDS011;2933;52.302;8.134;2023-04-24T20:24:49;9.10;;;2.80;;
5813;SDS011;2933;52.302;8.134;2023-04-24T20:29:51;4.70;;;2.53;;
5813;SDS011;2933;52.302;8.134;2023-04-24T20:34:55;5.87;;;2.80;;
5813;SDS011;2933;52.302;8.134;2023-04-24T20:39:56;4.50;;;2.80;;
5813;SDS011;2933;52.302;8.134;2023-04-24T20:44:59;5.83;;;2.50;;
5813;SDS011;2933;52.302;8.134;2023-04-24T20:50:02;5.50;;;2.77;;
5813;SDS011;2933;52.302;8.134;2023-04-24T20:55:05;15.67;;;3.40;;
5813;SDS011;2933;52.302;8.134;2023-04-24T21:00:08;5.97;;;3.10;;
5813;SDS011;2933;52.302;8.134;2023-04-24T21:05:12;4.90;;;2.63;;
5813;SDS011;2933;52.302;8.134;2023-04-24T21:10:14;4.97;;;3.53;;
5813;SDS011;2933;52.302;8.134;2023-04-24T21:15:15;7.67;;;3.10;;
5813;SDS011;2933;52.302;8.134;2023-04-24T21:20:18;7.63;;;3.20;;
5813;SDS011;2933;52.302;8.134;2023-04-24T21:25:20;9.10;;;3.87;;
5813;SDS011;2933;52.302;8.134;2023-04-24T21:30:21;10.33;;;2.97;;
5813;SDS011;2933;52.302;8.134;2023-04-24T21:35:24;5.67;;;3.00;;
5813;SDS011;2933;52.302;8.134;2023-04-24T21:40:26;6.40;;;3.40;;
5813;SDS011;2933;52.302;8.134;2023-04-24T21:45:27;9.00;;;3.30;;
5813;SDS011;2933;52.302;8.134;2023-04-24T21:50:31;9.53;;;3.40;;
5813;SDS011;2933;52.302;8.134;2023-04-24T21:55:32;8.50;;;2.90;;
5813;SDS011;2933;52.302;8.134;2023-04-24T22:00:34;3.53;;;2.80;;
5813;SDS011;2933;52.302;8.134;2023-04-24T22:05:37;14.20;;;3.07;;
5813;SDS011;2933;52.302;8.134;2023-04-24T22:10:39;14.20;;;3.57;;
5813;SDS011;2933;52.302;8.134;2023-04-24T22:15:40;6.73;;;3.60;;
5813;SDS011;2933;52.302;8.134;2023-04-24T22:20:43;10.53;;;2.93;;
5813;SDS011;2933;52.302;8.134;2023-04-24T22:25:45;12.70;;;2.93;;
5813;SDS011;2933;52.302;8.134;2023-04-24T22:30:47;14.63;;;3.90;;
5813;SDS011;2933;52.302;8.134;2023-04-24T22:35:50;11.23;;;3.63;;
5813;SDS011;2933;52.302;8.134;2023-04-24T22:40:51;6.97;;;3.43;;
5813;SDS011;2933;52.302;8.134;2023-04-24T22:45:53;12.67;;;4.93;;
5813;SDS011;2933;52.302;8.134;2023-04-24T22:50:56;9.20;;;3.23;;
5813;SDS011;2933;52.302;8.134;2023-04-24T22:55:58;3.13;;;2.73;;
5813;SDS011;2933;52.302;8.134;2023-04-24T23:01:00;9.13;;;3.77;;
5813;SDS011;2933;52.302;8.134;2023-04-24T23:06:03;9.63;;;3.37;;
5813;SDS011;2933;52.302;8.134;2023-04-24T23:11:05;10.70;;;3.37;;
5813;SDS011;2933;52.302;8.134;2023-04-24T23:16:06;11.33;;;3.50;;
5813;SDS011;2933;52.302;8.134;2023-04-24T23:21:09;7.50;;;3.33;;
5813;SDS011;2933;52.302;8.134;2023-04-24T23:26:11;6.37;;;3.03;;
5813;SDS011;2933;52.302;8.134;2023-04-24T23:31:13;5.97;;;3.07;;
5813;SDS011;2933;52.302;8.134;2023-04-24T23:36:15;6.73;;;3.03;;
5813;SDS011;2933;52.302;8.134;2023-04-24T23:41:17;4.47;;;3.13;;
5813;SDS011;2933;52.302;8.134;2023-04-24T23:46:19;8.00;;;3.20;;
5813;SDS011;2933;52.302;8.134;2023-04-24T23:51:24;11.00;;;3.43;;
5813;SDS011;2933;52.302;8.134;2023-04-24T23:56:25;8.90;;;3.37;;
